sensor_id;sensor_type;location;lat;lon;timestamp;temperature;humidity
4429;DHT22;2227;47.810;8.810;2023-09-07T03:50:09;15.40;99.90
4429;DHT22;2227;47.810;8.810;2023-09-07T03:52:36;15.30;99.90
4429;DHT22;2227;47.810;8.810;2023-09-07T03:55:03;15.30;99.90
4429;DHT22;2227;47.810;8.810;2023-09-07T03:57:30;15.30;99.90
4429;DHT22;2227;47.810;8.810;2023-09-07T03:59:57;15.30;99.90
4429;DHT22;2227;47.810;8.810;2023-09-07T04:02:25;15.20;99.90
4429;DHT22;2227;47.810;8.810;2023-09-07T04:04:54;15.20;99.90
4429;DHT22;2227;47.810;8.810;2023-09-07T04:07:21;15.20;99.90
4429;DHT22;2227;47.810;8.810;2023-09-07T04:09:50;15.20;99.90
4429;DHT22;2227;47.810;8.810;2023-09-07T04:12:17;15.20;99.90
4429;DHT22;2227;47.810;8.810;2023-09-07T04:14:44;15.20;99.90
4429;DHT22;2227;47.810;8.810;2023-09-07T04:17:11;15.20;99.90
4429;DHT22;2227;47.810;8.810;2023-09-07T04:19:38;15.20;99.90
4429;DHT22;2227;47.810;8.810;2023-09-07T04:22:05;15.20;99.90
4429;DHT22;2227;47.810;8.810;2023-09-07T04:24:32;15.20;99.90
4429;DHT22;2227;47.810;8.810;2023-09-07T04:26:59;15.20;99.90
4429;DHT22;2227;47.810;8.810;2023-09-07T04:29:30;15.20;99.90
4429;DHT22;2227;47.810;8.810;2023-09-07T04:31:57;15.20;99.90
4429;DHT22;2227;47.810;8.810;2023-09-07T04:34:24;15.10;99.90
4429;DHT22;2227;47.810;8.810;2023-09-07T04:36:51;15.20;99.90
4429;DHT22;2227;47.810;8.810;2023-09-07T04:39:17;15.20;99.90
4429;DHT22;2227;47.810;8.810;2023-09-07T04:41:44;15.10;99.90
4429;DHT22;2227;47.810;8.810;2023-09-07T04:44:11;15.00;99.90
4429;DHT22;2227;47.810;8.810;2023-09-07T04:46:38;15.00;99.90
4429;DHT22;2227;47.810;8.810;2023-09-07T04:49:05;15.00;99.90
4429;DHT22;2227;47.810;8.810;2023-09-07T04:51:32;14.90;99.90
4429;DHT22;2227;47.810;8.810;2023-09-07T04:53:59;14.90;99.90
4429;DHT22;2227;47.810;8.810;2023-09-07T04:56:25;14.80;99.90
4429;DHT22;2227;47.810;8.810;2023-09-07T04:58:54;14.70;99.90
4429;DHT22;2227;47.810;8.810;2023-09-07T05:01:21;14.60;99.90
4429;DHT22;2227;47.810;8.810;2023-09-07T05:03:48;14.70;99.90
4429;DHT22;2227;47.810;8.810;2023-09-07T05:06:15;14.70;99.90
4429;DHT22;2227;47.810;8.810;2023-09-07T05:08:41;14.70;99.90
4429;DHT22;2227;47.810;8.810;2023-09-07T05:11:08;14.60;99.90
4429;DHT22;2227;47.810;8.810;2023-09-07T05:13:35;14.70;99.90
4429;DHT22;2227;47.810;8.810;2023-09-07T05:16:01;14.70;99.90
4429;DHT22;2227;47.810;8.810;2023-09-07T05:18:28;14.70;99.90
4429;DHT22;2227;47.810;8.810;2023-09-07T05:20:56;14.80;99.90
4429;DHT22;2227;47.810;8.810;2023-09-07T05:23:22;14.80;99.90
4429;DHT22;2227;47.810;8.810;2023-09-07T05:25:51;14.90;99.90
4429;DHT22;2227;47.810;8.810;2023-09-07T05:28:20;14.90;99.90
4429;DHT22;2227;47.810;8.810;2023-09-07T05:30:47;14.80;99.90
4429;DHT22;2227;47.810;8.810;2023-09-07T05:33:16;14.80;99.90
4429;DHT22;2227;47.810;8.810;2023-09-07T05:35:43;14.80;99.90
4429;DHT22;2227;47.810;8.810;2023-09-07T05:38:12;14.80;99.90
4429;DHT22;2227;47.810;8.810;2023-09-07T05:40:41;14.80;99.90
4429;DHT22;2227;47.810;8.810;2023-09-07T05:43:09;14.90;99.90
4429;DHT22;2227;47.810;8.810;2023-09-07T05:45:38;14.90;99.90
4429;DHT22;2227;47.810;8.810;2023-09-07T05:48:06;15.00;99.90
4429;DHT22;2227;47.810;8.810;2023-09-07T05:50:35;15.10;99.90
4429;DHT22;2227;47.810;8.810;2023-09-07T05:53:02;15.20;99.90
4429;DHT22;2227;47.810;8.810;2023-09-07T05:55:29;15.30;99.90
4429;DHT22;2227;47.810;8.810;2023-09-07T05:57:57;15.40;99.90
4429;DHT22;2227;47.810;8.810;2023-09-07T06:00:24;15.50;99.90
4429;DHT22;2227;47.810;8.810;2023-09-07T06:02:51;15.60;99.90
4429;DHT22;2227;47.810;8.810;2023-09-07T06:05:19;15.70;99.90
4429;DHT22;2227;47.810;8.810;2023-09-07T06:07:45;15.80;99.90
4429;DHT22;2227;47.810;8.810;2023-09-07T06:10:12;15.90;99.90
4429;DHT22;2227;47.810;8.810;2023-09-07T06:12:39;16.00;99.90
4429;DHT22;2227;47.810;8.810;2023-09-07T06:15:08;16.10;99.90
4429;DHT22;2227;47.810;8.810;2023-09-07T06:17:35;16.30;99.90
4429;DHT22;2227;47.810;8.810;2023-09-07T06:20:02;16.40;99.90
4429;DHT22;2227;47.810;8.810;2023-09-07T06:22:29;16.50;99.90
4429;DHT22;2227;47.810;8.810;2023-09-07T06:24:56;16.60;99.90
4429;DHT22;2227;47.810;8.810;2023-09-07T06:27:23;16.70;99.90
4429;DHT22;2227;47.810;8.810;2023-09-07T06:29:49;16.80;99.90
4429;DHT22;2227;47.810;8.810;2023-09-07T06:32:17;16.90;99.90
4429;DHT22;2227;47.810;8.810;2023-09-07T06:34:45;17.00;99.90
4429;DHT22;2227;47.810;8.810;2023-09-07T06:37:12;17.10;99.90
4429;DHT22;2227;47.810;8.810;2023-09-07T06:39:39;17.20;99.90
4429;DHT22;2227;47.810;8.810;2023-09-07T06:42:06;17.40;99.90
4429;DHT22;2227;47.810;8.810;2023-09-07T06:44:34;17.50;99.90
4429;DHT22;2227;47.810;8.810;2023-09-07T06:47:00;17.50;99.90
4429;DHT22;2227;47.810;8.810;2023-09-07T06:49:27;17.60;99.90
4429;DHT22;2227;47.810;8.810;2023-09-07T06:51:56;17.80;99.90
4429;DHT22;2227;47.810;8.810;2023-09-07T06:54:24;17.90;99.90
4429;DHT22;2227;47.810;8.810;2023-09-07T06:56:50;18.00;99.90
4429;DHT22;2227;47.810;8.810;2023-09-07T06:59:17;18.10;99.90
4429;DHT22;2227;47.810;8.810;2023-09-07T07:01:44;18.20;99.90
4429;DHT22;2227;47.810;8.810;2023-09-07T07:04:11;18.50;99.90
4429;DHT22;2227;47.810;8.810;2023-09-07T07:06:38;18.60;99.90
4429;DHT22;2227;47.810;8.810;2023-09-07T07:09:05;18.70;99.90
4429;DHT22;2227;47.810;8.810;2023-09-07T07:11:32;18.90;99.90
4429;DHT22;2227;47.810;8.810;2023-09-07T07:13:59;19.10;99.90
4429;DHT22;2227;47.810;8.810;2023-09-07T07:16:25;19.20;99.90
4429;DHT22;2227;47.810;8.810;2023-09-07T07:18:52;19.30;99.90
4429;DHT22;2227;47.810;8.810;2023-09-07T07:21:19;19.40;99.90
4429;DHT22;2227;47.810;8.810;2023-09-07T07:23:46;19.60;99.90
4429;DHT22;2227;47.810;8.810;2023-09-07T07:26:12;19.70;99.90
4429;DHT22;2227;47.810;8.810;2023-09-07T07:28:39;19.80;99.90
4429;DHT22;2227;47.810;8.810;2023-09-07T07:31:09;19.90;99.90
4429;DHT22;2227;47.810;8.810;2023-09-07T07:33:36;20.00;99.90
4429;DHT22;2227;47.810;8.810;2023-09-07T07:36:05;20.10;99.90
4429;DHT22;2227;47.810;8.810;2023-09-07T07:38:32;20.40;99.90
4429;DHT22;2227;47.810;8.810;2023-09-07T07:40:58;20.50;99.90
4429;DHT22;2227;47.810;8.810;2023-09-07T07:43:25;20.70;99.90
4429;DHT22;2227;47.810;8.810;2023-09-07T07:45:54;20.70;99.90
4429;DHT22;2227;47.810;8.810;2023-09-07T07:48:21;20.80;99.90
4429;DHT22;2227;47.810;8.810;2023-09-07T07:50:48;20.90;99.90
4429;DHT22;2227;47.810;8.810;2023-09-07T07:53:15;21.10;99.90
4429;DHT22;2227;47.810;8.810;2023-09-07T07:55:42;21.20;99.90
4429;DHT22;2227;47.810;8.810;2023-09-07T07:58:09;21.50;99.90
4429;DHT22;2227;47.810;8.810;2023-09-07T08:00:37;21.70;99.90
4429;DHT22;2227;47.810;8.810;2023-09-07T08:03:04;22.10;99.90
4429;DHT22;2227;47.810;8.810;2023-09-07T08:05:34;22.40;99.90
4429;DHT22;2227;47.810;8.810;2023-09-07T08:08:01;22.60;99.90
4429;DHT22;2227;47.810;8.810;2023-09-07T08:10:28;22.80;99.90
4429;DHT22;2227;47.810;8.810;2023-09-07T08:12:58;23.40;99.90
4429;DHT22;2227;47.810;8.810;2023-09-07T08:15:25;24.20;99.90
4429;DHT22;2227;47.810;8.810;2023-09-07T08:17:52;25.30;99.90
4429;DHT22;2227;47.810;8.810;2023-09-07T08:20:20;26.20;99.90
4429;DHT22;2227;47.810;8.810;2023-09-07T08:22:46;27.00;99.90
4429;DHT22;2227;47.810;8.810;2023-09-07T08:25:14;27.90;99.90
4429;DHT22;2227;47.810;8.810;2023-09-07T08:27:41;28.90;98.80
4429;DHT22;2227;47.810;8.810;2023-09-07T08:30:11;29.70;96.90
4429;DHT22;2227;47.810;8.810;2023-09-07T08:32:38;30.90;94.50
4429;DHT22;2227;47.810;8.810;2023-09-07T08:35:05;32.00;91.90
4429;DHT22;2227;47.810;8.810;2023-09-07T08:37:34;32.80;89.00
4429;DHT22;2227;47.810;8.810;2023-09-07T08:40:01;33.70;84.20
4429;DHT22;2227;47.810;8.810;2023-09-07T08:42:30;34.40;80.10
4429;DHT22;2227;47.810;8.810;2023-09-07T08:45:00;34.70;75.80
4429;DHT22;2227;47.810;8.810;2023-09-07T08:47:30;35.20;73.40
4429;DHT22;2227;47.810;8.810;2023-09-07T08:49:58;36.10;69.30
4429;DHT22;2227;47.810;8.810;2023-09-07T08:52:25;36.40;66.30
4429;DHT22;2227;47.810;8.810;2023-09-07T08:54:52;36.50;63.70
4429;DHT22;2227;47.810;8.810;2023-09-07T08:57:20;36.50;64.30
4429;DHT22;2227;47.810;8.810;2023-09-07T08:59:49;37.30;62.10
4429;DHT22;2227;47.810;8.810;2023-09-07T09:02:16;37.80;59.20
4429;DHT22;2227;47.810;8.810;2023-09-07T09:04:43;37.40;59.60
4429;DHT22;2227;47.810;8.810;2023-09-07T09:07:10;37.50;59.20
4429;DHT22;2227;47.810;8.810;2023-09-07T09:09:37;37.50;57.90
4429;DHT22;2227;47.810;8.810;2023-09-07T09:12:12;37.70;58.00
4429;DHT22;2227;47.810;8.810;2023-09-07T09:14:43;38.40;56.80
4429;DHT22;2227;47.810;8.810;2023-09-07T09:17:13;38.60;55.50
4429;DHT22;2227;47.810;8.810;2023-09-07T09:19:41;39.20;54.80
4429;DHT22;2227;47.810;8.810;2023-09-07T09:22:09;39.60;52.70
4429;DHT22;2227;47.810;8.810;2023-09-07T09:24:36;39.80;52.60
4429;DHT22;2227;47.810;8.810;2023-09-07T09:27:03;39.60;52.30
4429;DHT22;2227;47.810;8.810;2023-09-07T09:29:34;39.80;52.60
4429;DHT22;2227;47.810;8.810;2023-09-07T09:32:05;40.40;51.70
4429;DHT22;2227;47.810;8.810;2023-09-07T09:34:36;41.10;49.90
4429;DHT22;2227;47.810;8.810;2023-09-07T09:37:04;41.10;49.40
4429;DHT22;2227;47.810;8.810;2023-09-07T09:39:31;41.40;49.30
4429;DHT22;2227;47.810;8.810;2023-09-07T09:41:58;41.50;48.60
4429;DHT22;2227;47.810;8.810;2023-09-07T09:44:28;42.10;48.30
4429;DHT22;2227;47.810;8.810;2023-09-07T09:46:56;42.50;47.30
4429;DHT22;2227;47.810;8.810;2023-09-07T09:49:24;42.90;46.30
4429;DHT22;2227;47.810;8.810;2023-09-07T09:51:52;43.50;45.00
4429;DHT22;2227;47.810;8.810;2023-09-07T09:54:20;43.50;44.90
4429;DHT22;2227;47.810;8.810;2023-09-07T09:56:48;43.30;45.00
4429;DHT22;2227;47.810;8.810;2023-09-07T09:59:15;43.80;44.20
4429;DHT22;2227;47.810;8.810;2023-09-07T10:01:47;42.40;45.30
4429;DHT22;2227;47.810;8.810;2023-09-07T10:04:17;41.90;45.20
4429;DHT22;2227;47.810;8.810;2023-09-07T10:07:14;41.60;45.40
4429;DHT22;2227;47.810;8.810;2023-09-07T10:09:41;41.90;45.30
4429;DHT22;2227;47.810;8.810;2023-09-07T10:12:11;42.20;45.10
4429;DHT22;2227;47.810;8.810;2023-09-07T10:14:42;43.20;43.90
4429;DHT22;2227;47.810;8.810;2023-09-07T10:17:09;43.60;42.80
4429;DHT22;2227;47.810;8.810;2023-09-07T10:19:36;43.60;43.40
4429;DHT22;2227;47.810;8.810;2023-09-07T10:22:05;44.00;42.70
4429;DHT22;2227;47.810;8.810;2023-09-07T10:24:33;44.10;42.20
4429;DHT22;2227;47.810;8.810;2023-09-07T10:27:03;44.50;42.00
4429;DHT22;2227;47.810;8.810;2023-09-07T10:29:44;44.60;41.60
4429;DHT22;2227;47.810;8.810;2023-09-07T10:32:12;44.90;41.50
4429;DHT22;2227;47.810;8.810;2023-09-07T10:34:45;44.80;41.40
4429;DHT22;2227;47.810;8.810;2023-09-07T10:37:14;44.40;41.80
4429;DHT22;2227;47.810;8.810;2023-09-07T10:39:43;43.40;42.60
4429;DHT22;2227;47.810;8.810;2023-09-07T10:42:25;42.70;43.40
4429;DHT22;2227;47.810;8.810;2023-09-07T10:44:53;42.70;43.80
4429;DHT22;2227;47.810;8.810;2023-09-07T10:47:20;42.90;43.60
4429;DHT22;2227;47.810;8.810;2023-09-07T10:49:47;43.00;43.50
4429;DHT22;2227;47.810;8.810;2023-09-07T10:52:14;42.60;43.80
4429;DHT22;2227;47.810;8.810;2023-09-07T10:54:41;42.40;44.10
4429;DHT22;2227;47.810;8.810;2023-09-07T10:57:08;41.80;44.50
4429;DHT22;2227;47.810;8.810;2023-09-07T10:59:35;40.40;47.20
4429;DHT22;2227;47.810;8.810;2023-09-07T11:02:06;39.50;48.50
4429;DHT22;2227;47.810;8.810;2023-09-07T11:04:33;39.70;48.40
4429;DHT22;2227;47.810;8.810;2023-09-07T11:07:00;40.10;48.10
4429;DHT22;2227;47.810;8.810;2023-09-07T11:09:30;40.20;47.80
4429;DHT22;2227;47.810;8.810;2023-09-07T11:12:03;40.10;48.90
4429;DHT22;2227;47.810;8.810;2023-09-07T11:14:30;40.60;47.70
4429;DHT22;2227;47.810;8.810;2023-09-07T11:16:57;40.80;47.50
4429;DHT22;2227;47.810;8.810;2023-09-07T11:19:24;40.60;48.30
4429;DHT22;2227;47.810;8.810;2023-09-07T11:21:53;40.80;47.50
4429;DHT22;2227;47.810;8.810;2023-09-07T11:24:20;40.50;47.60
4429;DHT22;2227;47.810;8.810;2023-09-07T11:26:47;39.60;49.10
4429;DHT22;2227;47.810;8.810;2023-09-07T11:29:17;38.00;51.40
4429;DHT22;2227;47.810;8.810;2023-09-07T11:31:45;37.60;52.10
4429;DHT22;2227;47.810;8.810;2023-09-07T11:34:13;37.70;52.30
4429;DHT22;2227;47.810;8.810;2023-09-07T11:36:41;37.90;52.40
4429;DHT22;2227;47.810;8.810;2023-09-07T11:39:08;38.40;52.00
4429;DHT22;2227;47.810;8.810;2023-09-07T11:41:42;38.70;52.00
4429;DHT22;2227;47.810;8.810;2023-09-07T11:44:09;39.10;52.00
4429;DHT22;2227;47.810;8.810;2023-09-07T11:46:37;38.80;51.80
4429;DHT22;2227;47.810;8.810;2023-09-07T11:49:04;38.80;51.60
4429;DHT22;2227;47.810;8.810;2023-09-07T11:51:36;38.80;51.20
4429;DHT22;2227;47.810;8.810;2023-09-07T11:54:04;38.50;51.30
4429;DHT22;2227;47.810;8.810;2023-09-07T11:56:31;37.80;51.90
4429;DHT22;2227;47.810;8.810;2023-09-07T11:58:58;37.10;54.00
4429;DHT22;2227;47.810;8.810;2023-09-07T12:01:25;36.80;54.80
4429;DHT22;2227;47.810;8.810;2023-09-07T12:03:53;37.00;54.20
4429;DHT22;2227;47.810;8.810;2023-09-07T12:06:20;36.50;54.70
4429;DHT22;2227;47.810;8.810;2023-09-07T12:09:04;36.20;55.60
4429;DHT22;2227;47.810;8.810;2023-09-07T12:11:31;36.30;55.00
4429;DHT22;2227;47.810;8.810;2023-09-07T12:13:58;36.30;56.30
4429;DHT22;2227;47.810;8.810;2023-09-07T12:16:26;36.10;55.60
4429;DHT22;2227;47.810;8.810;2023-09-07T12:18:53;36.10;55.50
4429;DHT22;2227;47.810;8.810;2023-09-07T12:21:20;36.10;55.90
4429;DHT22;2227;47.810;8.810;2023-09-07T12:23:47;36.50;55.70
4429;DHT22;2227;47.810;8.810;2023-09-07T12:26:14;36.10;55.00
4429;DHT22;2227;47.810;8.810;2023-09-07T12:28:43;35.60;55.50
4429;DHT22;2227;47.810;8.810;2023-09-07T12:31:11;35.40;56.20
4429;DHT22;2227;47.810;8.810;2023-09-07T12:33:38;35.10;57.00
4429;DHT22;2227;47.810;8.810;2023-09-07T12:36:05;35.10;57.90
4429;DHT22;2227;47.810;8.810;2023-09-07T12:38:36;34.80;58.10
4429;DHT22;2227;47.810;8.810;2023-09-07T12:41:02;35.00;58.20
4429;DHT22;2227;47.810;8.810;2023-09-07T12:43:29;35.20;57.70
4429;DHT22;2227;47.810;8.810;2023-09-07T12:45:57;35.50;57.80
4429;DHT22;2227;47.810;8.810;2023-09-07T12:48:23;35.70;56.90
4429;DHT22;2227;47.810;8.810;2023-09-07T12:50:50;35.40;57.10
4429;DHT22;2227;47.810;8.810;2023-09-07T12:53:17;34.90;58.00
4429;DHT22;2227;47.810;8.810;2023-09-07T12:55:44;34.80;58.50
4429;DHT22;2227;47.810;8.810;2023-09-07T12:58:10;35.00;58.40
4429;DHT22;2227;47.810;8.810;2023-09-07T13:00:38;35.20;57.80
4429;DHT22;2227;47.810;8.810;2023-09-07T13:03:05;35.10;57.30
4429;DHT22;2227;47.810;8.810;2023-09-07T13:05:33;35.20;57.50
4429;DHT22;2227;47.810;8.810;2023-09-07T13:07:59;35.20;57.30
4429;DHT22;2227;47.810;8.810;2023-09-07T13:10:29;35.10;57.20
4429;DHT22;2227;47.810;8.810;2023-09-07T13:12:56;34.90;57.80
4429;DHT22;2227;47.810;8.810;2023-09-07T13:15:22;35.10;58.10
4429;DHT22;2227;47.810;8.810;2023-09-07T13:17:49;35.30;57.90
4429;DHT22;2227;47.810;8.810;2023-09-07T13:20:16;35.50;57.50
4429;DHT22;2227;47.810;8.810;2023-09-07T13:22:43;35.30;57.30
4429;DHT22;2227;47.810;8.810;2023-09-07T13:25:09;35.20;58.00
4429;DHT22;2227;47.810;8.810;2023-09-07T13:27:36;35.30;57.40
4429;DHT22;2227;47.810;8.810;2023-09-07T13:30:04;35.60;57.00
4429;DHT22;2227;47.810;8.810;2023-09-07T13:32:32;36.10;56.20
4429;DHT22;2227;47.810;8.810;2023-09-07T13:34:59;36.20;56.10
4429;DHT22;2227;47.810;8.810;2023-09-07T13:37:26;36.40;56.50
4429;DHT22;2227;47.810;8.810;2023-09-07T13:39:53;36.70;55.40
4429;DHT22;2227;47.810;8.810;2023-09-07T13:42:20;36.30;55.70
4429;DHT22;2227;47.810;8.810;2023-09-07T13:44:46;36.10;56.10
4429;DHT22;2227;47.810;8.810;2023-09-07T13:47:13;35.80;56.10
4429;DHT22;2227;47.810;8.810;2023-09-07T13:49:40;35.70;56.40
4429;DHT22;2227;47.810;8.810;2023-09-07T13:52:07;35.50;56.50
4429;DHT22;2227;47.810;8.810;2023-09-07T13:54:33;35.50;57.60
4429;DHT22;2227;47.810;8.810;2023-09-07T13:57:00;35.90;57.20
4429;DHT22;2227;47.810;8.810;2023-09-07T13:59:27;36.50;56.30
4429;DHT22;2227;47.810;8.810;2023-09-07T14:01:59;36.70;55.90
4429;DHT22;2227;47.810;8.810;2023-09-07T14:04:26;36.90;55.30
4429;DHT22;2227;47.810;8.810;2023-09-07T14:06:53;37.40;54.80
4429;DHT22;2227;47.810;8.810;2023-09-07T14:09:20;37.50;54.50
4429;DHT22;2227;47.810;8.810;2023-09-07T14:11:49;37.40;54.60
4429;DHT22;2227;47.810;8.810;2023-09-07T14:14:16;36.90;55.40
4429;DHT22;2227;47.810;8.810;2023-09-07T14:16:44;36.70;55.90
4429;DHT22;2227;47.810;8.810;2023-09-07T14:19:11;36.70;56.50
4429;DHT22;2227;47.810;8.810;2023-09-07T14:21:38;37.00;56.40
4429;DHT22;2227;47.810;8.810;2023-09-07T14:24:05;36.80;56.30
4429;DHT22;2227;47.810;8.810;2023-09-07T14:26:32;36.00;57.50
4429;DHT22;2227;47.810;8.810;2023-09-07T14:28:58;35.40;58.30
4429;DHT22;2227;47.810;8.810;2023-09-07T14:31:25;35.20;59.10
4429;DHT22;2227;47.810;8.810;2023-09-07T14:33:52;35.70;58.70
4429;DHT22;2227;47.810;8.810;2023-09-07T14:36:19;35.90;57.90
4429;DHT22;2227;47.810;8.810;2023-09-07T14:38:45;36.10;57.40
4429;DHT22;2227;47.810;8.810;2023-09-07T14:41:12;36.30;56.80
4429;DHT22;2227;47.810;8.810;2023-09-07T14:43:47;36.10;57.50
4429;DHT22;2227;47.810;8.810;2023-09-07T14:46:14;36.10;57.20
4429;DHT22;2227;47.810;8.810;2023-09-07T14:48:41;36.40;57.00
4429;DHT22;2227;47.810;8.810;2023-09-07T14:51:09;36.40;57.40
4429;DHT22;2227;47.810;8.810;2023-09-07T14:53:36;36.60;56.70
4429;DHT22;2227;47.810;8.810;2023-09-07T14:56:03;36.50;57.60
4429;DHT22;2227;47.810;8.810;2023-09-07T14:58:29;36.10;58.20
4429;DHT22;2227;47.810;8.810;2023-09-07T15:00:57;35.40;59.20
4429;DHT22;2227;47.810;8.810;2023-09-07T15:03:24;34.70;60.90
4429;DHT22;2227;47.810;8.810;2023-09-07T15:05:52;34.40;61.70
4429;DHT22;2227;47.810;8.810;2023-09-07T15:08:19;34.20;60.60
4429;DHT22;2227;47.810;8.810;2023-09-07T15:10:45;34.40;60.60
4429;DHT22;2227;47.810;8.810;2023-09-07T15:13:12;34.70;60.10
4429;DHT22;2227;47.810;8.810;2023-09-07T15:15:40;34.70;61.50
4429;DHT22;2227;47.810;8.810;2023-09-07T15:18:07;34.50;61.10
4429;DHT22;2227;47.810;8.810;2023-09-07T15:20:35;34.20;61.70
4429;DHT22;2227;47.810;8.810;2023-09-07T15:23:02;33.70;62.90
4429;DHT22;2227;47.810;8.810;2023-09-07T15:25:30;33.40;63.80
4429;DHT22;2227;47.810;8.810;2023-09-07T15:27:57;33.00;64.60
4429;DHT22;2227;47.810;8.810;2023-09-07T15:30:24;32.50;65.70
4429;DHT22;2227;47.810;8.810;2023-09-07T15:32:51;32.00;67.10
4429;DHT22;2227;47.810;8.810;2023-09-07T15:35:18;31.70;67.80
4429;DHT22;2227;47.810;8.810;2023-09-07T15:37:45;31.50;69.40
4429;DHT22;2227;47.810;8.810;2023-09-07T15:40:15;31.70;68.60
4429;DHT22;2227;47.810;8.810;2023-09-07T15:42:41;31.70;69.60
4429;DHT22;2227;47.810;8.810;2023-09-07T15:45:09;31.60;69.20
4429;DHT22;2227;47.810;8.810;2023-09-07T15:47:36;31.50;68.90
4429;DHT22;2227;47.810;8.810;2023-09-07T15:50:03;31.50;69.60
4429;DHT22;2227;47.810;8.810;2023-09-07T15:52:30;31.40;70.80
4429;DHT22;2227;47.810;8.810;2023-09-07T15:54:57;31.40;69.70
4429;DHT22;2227;47.810;8.810;2023-09-07T15:57:25;31.40;69.90
4429;DHT22;2227;47.810;8.810;2023-09-07T15:59:51;31.50;70.00
4429;DHT22;2227;47.810;8.810;2023-09-07T16:02:18;31.40;70.20
4429;DHT22;2227;47.810;8.810;2023-09-07T16:04:45;31.20;71.50
4429;DHT22;2227;47.810;8.810;2023-09-07T16:07:12;31.00;72.50
4429;DHT22;2227;47.810;8.810;2023-09-07T16:09:39;31.10;72.30
4429;DHT22;2227;47.810;8.810;2023-09-07T16:12:06;30.90;72.80
4429;DHT22;2227;47.810;8.810;2023-09-07T16:14:33;30.70;72.70
4429;DHT22;2227;47.810;8.810;2023-09-07T16:17:00;30.50;73.80
4429;DHT22;2227;47.810;8.810;2023-09-07T16:19:27;30.70;73.70
4429;DHT22;2227;47.810;8.810;2023-09-07T16:21:54;30.70;74.30
4429;DHT22;2227;47.810;8.810;2023-09-07T16:24:20;30.70;73.90
4429;DHT22;2227;47.810;8.810;2023-09-07T16:26:47;30.70;73.50
4429;DHT22;2227;47.810;8.810;2023-09-07T16:29:14;30.80;73.70
4429;DHT22;2227;47.810;8.810;2023-09-07T16:31:41;30.60;73.50
4429;DHT22;2227;47.810;8.810;2023-09-07T16:34:08;30.60;74.30
4429;DHT22;2227;47.810;8.810;2023-09-07T16:36:35;30.60;74.60
4429;DHT22;2227;47.810;8.810;2023-09-07T16:39:01;30.60;75.10
4429;DHT22;2227;47.810;8.810;2023-09-07T16:41:28;30.70;75.60
4429;DHT22;2227;47.810;8.810;2023-09-07T16:43:55;30.60;74.70
4429;DHT22;2227;47.810;8.810;2023-09-07T16:46:22;30.40;75.90
4429;DHT22;2227;47.810;8.810;2023-09-07T16:48:48;30.40;76.40
4429;DHT22;2227;47.810;8.810;2023-09-07T16:51:15;30.60;76.30
4429;DHT22;2227;47.810;8.810;2023-09-07T16:53:43;30.50;76.70
4429;DHT22;2227;47.810;8.810;2023-09-07T16:56:11;30.50;76.90
4429;DHT22;2227;47.810;8.810;2023-09-07T16:58:41;30.40;77.50
4429;DHT22;2227;47.810;8.810;2023-09-07T17:01:29;30.30;79.10
4429;DHT22;2227;47.810;8.810;2023-09-07T17:03:56;30.20;79.80
4429;DHT22;2227;47.810;8.810;2023-09-07T17:06:23;30.00;80.70
4429;DHT22;2227;47.810;8.810;2023-09-07T17:08:49;29.90;81.50
4429;DHT22;2227;47.810;8.810;2023-09-07T17:11:17;29.70;81.60
4429;DHT22;2227;47.810;8.810;2023-09-07T17:13:43;29.50;83.50
4429;DHT22;2227;47.810;8.810;2023-09-07T17:16:25;29.40;83.90
4429;DHT22;2227;47.810;8.810;2023-09-07T17:18:52;29.20;85.60
4429;DHT22;2227;47.810;8.810;2023-09-07T17:21:19;29.00;86.10
4429;DHT22;2227;47.810;8.810;2023-09-07T17:23:46;28.80;86.40
4429;DHT22;2227;47.810;8.810;2023-09-07T17:26:13;28.60;87.40
4429;DHT22;2227;47.810;8.810;2023-09-07T17:28:39;28.60;88.40
4429;DHT22;2227;47.810;8.810;2023-09-07T17:31:13;28.40;88.50
4429;DHT22;2227;47.810;8.810;2023-09-07T17:33:40;28.20;89.00
4429;DHT22;2227;47.810;8.810;2023-09-07T17:36:16;28.00;89.60
4429;DHT22;2227;47.810;8.810;2023-09-07T17:38:45;27.80;90.20
4429;DHT22;2227;47.810;8.810;2023-09-07T17:41:12;27.50;90.80
4429;DHT22;2227;47.810;8.810;2023-09-07T17:43:39;27.30;91.30
4429;DHT22;2227;47.810;8.810;2023-09-07T17:46:07;27.10;91.90
4429;DHT22;2227;47.810;8.810;2023-09-07T17:48:34;26.90;92.30
4429;DHT22;2227;47.810;8.810;2023-09-07T17:51:01;26.90;92.90
4429;DHT22;2227;47.810;8.810;2023-09-07T17:53:29;26.70;93.40
4429;DHT22;2227;47.810;8.810;2023-09-07T17:55:56;26.60;93.90
4429;DHT22;2227;47.810;8.810;2023-09-07T17:58:23;26.50;94.40
4429;DHT22;2227;47.810;8.810;2023-09-07T18:00:49;26.40;94.70
4429;DHT22;2227;47.810;8.810;2023-09-07T18:03:16;26.40;95.00
4429;DHT22;2227;47.810;8.810;2023-09-07T18:05:43;26.30;95.40
4429;DHT22;2227;47.810;8.810;2023-09-07T18:08:10;26.30;95.90
4429;DHT22;2227;47.810;8.810;2023-09-07T18:10:36;26.20;96.50
4429;DHT22;2227;47.810;8.810;2023-09-07T18:13:03;26.00;97.20
4429;DHT22;2227;47.810;8.810;2023-09-07T18:15:31;25.80;97.90
4429;DHT22;2227;47.810;8.810;2023-09-07T18:17:58;25.80;98.50
4429;DHT22;2227;47.810;8.810;2023-09-07T18:20:25;25.60;99.50
4429;DHT22;2227;47.810;8.810;2023-09-07T18:22:53;25.50;99.90
4429;DHT22;2227;47.810;8.810;2023-09-07T18:25:20;25.40;99.90
4429;DHT22;2227;47.810;8.810;2023-09-07T18:27:48;25.30;99.90
4429;DHT22;2227;47.810;8.810;2023-09-07T18:30:15;25.20;99.90
4429;DHT22;2227;47.810;8.810;2023-09-07T18:32:42;25.10;99.90
4429;DHT22;2227;47.810;8.810;2023-09-07T18:35:09;24.90;99.90
4429;DHT22;2227;47.810;8.810;2023-09-07T18:37:36;24.80;99.90
4429;DHT22;2227;47.810;8.810;2023-09-07T18:40:05;24.70;99.90
4429;DHT22;2227;47.810;8.810;2023-09-07T18:42:35;24.60;99.90
4429;DHT22;2227;47.810;8.810;2023-09-07T18:45:02;24.60;99.90
4429;DHT22;2227;47.810;8.810;2023-09-07T18:47:30;24.60;99.90
4429;DHT22;2227;47.810;8.810;2023-09-07T18:49:58;24.50;99.90
4429;DHT22;2227;47.810;8.810;2023-09-07T18:52:25;24.50;99.90
4429;DHT22;2227;47.810;8.810;2023-09-07T18:54:54;24.30;99.90
4429;DHT22;2227;47.810;8.810;2023-09-07T18:57:21;24.20;99.90
4429;DHT22;2227;47.810;8.810;2023-09-07T18:59:48;24.10;99.90
4429;DHT22;2227;47.810;8.810;2023-09-07T19:02:16;24.20;99.90
4429;DHT22;2227;47.810;8.810;2023-09-07T19:04:43;24.20;99.90
4429;DHT22;2227;47.810;8.810;2023-09-07T19:07:10;24.20;99.90
4429;DHT22;2227;47.810;8.810;2023-09-07T19:09:38;24.20;99.90
4429;DHT22;2227;47.810;8.810;2023-09-07T19:12:05;24.20;99.90
4429;DHT22;2227;47.810;8.810;2023-09-07T19:14:32;24.20;99.90
4429;DHT22;2227;47.810;8.810;2023-09-07T19:16:59;24.20;99.90
4429;DHT22;2227;47.810;8.810;2023-09-07T19:19:26;24.10;99.90
4429;DHT22;2227;47.810;8.810;2023-09-07T19:21:53;24.10;99.90
4429;DHT22;2227;47.810;8.810;2023-09-07T19:24:19;24.00;99.90
4429;DHT22;2227;47.810;8.810;2023-09-07T19:26:46;23.90;99.90
4429;DHT22;2227;47.810;8.810;2023-09-07T19:29:15;23.90;99.90
4429;DHT22;2227;47.810;8.810;2023-09-07T19:31:42;23.70;99.90
4429;DHT22;2227;47.810;8.810;2023-09-07T19:34:09;23.60;99.90
4429;DHT22;2227;47.810;8.810;2023-09-07T19:36:36;23.60;99.90
4429;DHT22;2227;47.810;8.810;2023-09-07T19:39:03;23.60;99.90
4429;DHT22;2227;47.810;8.810;2023-09-07T19:41:30;23.60;99.90
4429;DHT22;2227;47.810;8.810;2023-09-07T19:44:01;23.40;99.90
4429;DHT22;2227;47.810;8.810;2023-09-07T19:46:28;23.40;99.90
4429;DHT22;2227;47.810;8.810;2023-09-07T19:48:55;23.30;99.90
4429;DHT22;2227;47.810;8.810;2023-09-07T19:51:23;23.30;99.90
4429;DHT22;2227;47.810;8.810;2023-09-07T19:53:51;23.30;99.90